Time;durP1;ratioP1;P1;durP2;ratioP2;P2;SDS_P1;SDS_P2;PMS_P1;PMS_P2;Temp;Humidity;BMP_temperature;BMP_pressure;BME280_temperature;BME280_humidity;BME280_pressure;Samples;Min_cycle;Max_cycle;Signal;HPM_P1;HPM_P2
2023/03/07 00:01:25;;;;;;;15.30;8.93;;;3.30;98.20;;;;;;4966323;28;20067;-73
2023/03/07 00:03:51;;;;;;;16.30;8.43;;;3.20;98.30;;;;;;4966274;29;20059;-73
2023/03/07 00:06:17;;;;;;;16.02;9.23;;;3.20;98.20;;;;;;4966330;28;20146;-72
2023/03/07 00:08:43;;;;;;;16.15;9.23;;;3.20;98.20;;;;;;4966754;28;20098;-74
2023/03/07 00:11:11;;;;;;;18.75;9.95;;;3.20;98.00;;;;;;4966309;28;20043;-72
2023/03/07 00:13:38;;;;;;;15.32;9.20;;;3.20;98.00;;;;;;4949225;29;20038;-71
2023/03/07 00:16:06;;;;;;;17.77;9.63;;;3.20;98.00;;;;;;4949096;29;20079;-73
2023/03/07 00:18:33;;;;;;;16.58;8.93;;;3.20;98.00;;;;;;4966500;28;20043;-73
2023/03/07 00:21:00;;;;;;;14.27;8.68;;;3.20;97.90;;;;;;4965920;28;20035;-73
2023/03/07 00:23:26;;;;;;;20.63;10.20;;;3.20;97.90;;;;;;4966275;28;20347;-74
2023/03/07 00:26:07;;;;;;;15.82;8.02;;;3.10;97.90;;;;;;4965561;28;20026;-73
2023/03/07 00:28:33;;;;;;;15.15;8.35;;;3.20;97.60;;;;;;4966406;28;20246;-74
2023/03/07 06:01:48;;;;;;;15.43;7.80;;;3.70;94.60;;;;;;5731817;23;20059;-71
2023/03/07 06:04:14;;;;;;;14.38;7.75;;;3.80;94.50;;;;;;4962733;28;20106;-72
2023/03/07 06:06:39;;;;;;;14.98;7.88;;;3.80;94.40;;;;;;4953374;28;20039;-73
2023/03/07 06:09:05;;;;;;;14.30;7.97;;;3.80;94.30;;;;;;4963275;28;20042;-74
2023/03/07 06:11:32;;;;;;;16.38;7.68;;;3.80;94.10;;;;;;4963488;28;20033;-72
2023/03/07 06:13:58;;;;;;;15.55;7.88;;;3.80;94.10;;;;;;4964313;28;20039;-71
2023/03/07 06:16:24;;;;;;;15.55;7.75;;;3.80;93.90;;;;;;4964089;28;20035;-72
2023/03/07 06:18:50;;;;;;;14.40;7.90;;;3.90;93.90;;;;;;4963172;28;20074;-72
2023/03/07 06:21:17;;;;;;;13.90;7.68;;;3.90;93.80;;;;;;4963822;28;20031;-73
2023/03/07 06:23:45;;;;;;;15.38;8.07;;;3.90;93.90;;;;;;4947010;29;20070;-74
2023/03/07 06:26:14;;;;;;;15.00;7.50;;;3.90;93.80;;;;;;4962515;28;20031;-73
2023/03/07 06:28:42;;;;;;;16.40;7.75;;;3.90;93.70;;;;;;4962878;28;20027;-72
2023/03/07 06:31:11;;;;;;;15.43;7.63;;;4.00;93.70;;;;;;4963007;28;20031;-73
2023/03/07 06:33:38;;;;;;;15.23;8.30;;;4.00;93.70;;;;;;4962996;28;20205;-75
2023/03/07 06:36:06;;;;;;;15.63;7.97;;;4.00;93.70;;;;;;4962826;28;20035;-73
2023/03/07 06:38:32;;;;;;;12.98;7.43;;;4.00;93.70;;;;;;4962345;28;20354;-74
2023/03/07 06:40:58;;;;;;;15.45;7.75;;;4.00;93.60;;;;;;4962448;28;20035;-74
2023/03/07 06:43:24;;;;;;;15.20;7.50;;;4.10;93.50;;;;;;4963558;28;20381;-72
2023/03/07 06:45:50;;;;;;;15.80;7.68;;;4.10;93.50;;;;;;4963758;28;20035;-74
2023/03/07 06:48:18;;;;;;;17.52;7.72;;;4.10;93.50;;;;;;4961975;28;20323;-75
2023/03/07 06:50:44;;;;;;;16.13;7.68;;;4.20;93.40;;;;;;4962643;28;20077;-75
2023/03/07 06:53:10;;;;;;;12.85;7.38;;;4.20;93.30;;;;;;4963828;28;20035;-74
2023/03/07 06:55:36;;;;;;;12.77;7.07;;;4.20;93.20;;;;;;4963347;28;20039;-75
2023/03/07 06:58:01;;;;;;;12.70;6.82;;;4.30;92.90;;;;;;4946732;29;20037;-76
2023/03/07 07:00:27;;;;;;;14.45;7.20;;;4.20;93.00;;;;;;4962161;28;20038;-75
2023/03/07 07:02:53;;;;;;;12.45;7.03;;;4.30;92.90;;;;;;4948477;28;20163;-74
2023/03/07 07:05:19;;;;;;;12.63;6.93;;;4.30;92.80;;;;;;4943849;29;20368;-72
2023/03/07 07:07:45;;;;;;;12.55;6.60;;;4.40;92.80;;;;;;4944418;29;20035;-73
2023/03/07 07:10:11;;;;;;;13.23;7.30;;;4.50;92.70;;;;;;4943107;29;20039;-75
2023/03/07 07:12:37;;;;;;;12.95;7.18;;;4.50;92.60;;;;;;4944133;29;20106;-76
2023/03/07 07:15:04;;;;;;;15.02;7.57;;;4.50;92.70;;;;;;4927300;29;20046;-73
2023/03/07 07:17:37;;;;;;;13.27;7.00;;;4.50;92.70;;;;;;4942628;29;20028;-75
2023/03/07 07:20:05;;;;;;;12.30;6.95;;;4.60;92.80;;;;;;4937319;29;20024;-75
2023/03/07 07:22:32;;;;;;;14.05;8.10;;;4.70;92.60;;;;;;4942469;29;20023;-75
2023/03/07 07:24:58;;;;;;;13.65;6.82;;;4.70;92.60;;;;;;4911279;29;20373;-75
2023/03/07 07:27:24;;;;;;;14.32;6.75;;;4.80;92.60;;;;;;4935997;29;20032;-77
2023/03/07 07:29:50;;;;;;;12.10;6.70;;;4.90;92.30;;;;;;4943051;29;20106;-74
2023/03/07 07:32:16;;;;;;;14.45;7.35;;;5.00;92.10;;;;;;4926667;29;20032;-75
2023/03/07 07:34:42;;;;;;;12.23;7.20;;;5.00;92.10;;;;;;4927021;29;20067;-76
2023/03/07 07:37:08;;;;;;;13.15;7.03;;;5.10;92.00;;;;;;4942848;29;20090;-73
2023/03/07 07:39:34;;;;;;;13.90;6.97;;;5.10;92.00;;;;;;4943550;29;20242;-74
2023/03/07 07:41:59;;;;;;;12.27;6.95;;;5.10;92.00;;;;;;4942669;29;20024;-73
2023/03/07 07:44:29;;;;;;;14.55;7.40;;;5.20;91.90;;;;;;4944288;29;20036;-73
2023/03/07 07:46:57;;;;;;;12.73;6.63;;;5.20;91.90;;;;;;4937152;29;20328;-74
2023/03/07 07:49:23;;;;;;;12.88;6.90;;;5.40;91.70;;;;;;4947104;29;20035;-73
2023/03/07 07:51:49;;;;;;;13.27;7.10;;;5.40;91.60;;;;;;4946547;29;20037;-74
2023/03/07 07:54:15;;;;;;;20.85;6.95;;;5.40;91.50;;;;;;4945799;29;20036;-76
2023/03/07 07:56:41;;;;;;;15.40;7.38;;;5.50;91.30;;;;;;4947427;29;20032;-72
2023/03/07 07:59:07;;;;;;;14.32;6.97;;;5.50;91.40;;;;;;4947341;29;20039;-73
2023/03/07 08:01:32;;;;;;;12.57;7.13;;;5.40;91.50;;;;;;4932716;29;20043;-73
2023/03/07 08:03:58;;;;;;;15.18;7.03;;;5.40;91.50;;;;;;4938321;29;20036;-75
2023/03/07 08:06:26;;;;;;;15.68;7.60;;;5.50;91.30;;;;;;4922399;29;20038;-75
2023/03/07 08:08:52;;;;;;;13.48;7.07;;;5.60;91.20;;;;;;4943272;29;20316;-75
2023/03/07 08:11:19;;;;;;;12.05;6.82;;;5.70;91.10;;;;;;4938694;29;20016;-74
2023/03/07 08:13:45;;;;;;;12.25;6.45;;;5.70;91.00;;;;;;4935334;29;20298;-74
2023/03/07 08:16:13;;;;;;;12.15;6.88;;;5.80;90.90;;;;;;4944267;29;20031;-75
2023/03/07 08:18:40;;;;;;;12.38;7.18;;;5.80;90.90;;;;;;4937946;29;20043;-74
2023/03/07 08:21:07;;;;;;;13.80;6.60;;;5.90;90.80;;;;;;4937568;28;20058;-72
2023/03/07 08:23:33;;;;;;;11.30;6.65;;;5.90;90.80;;;;;;4960218;28;20093;-74
2023/03/07 08:26:04;;;;;;;12.65;7.22;;;6.00;90.80;;;;;;4966276;28;20031;-75
2023/03/07 08:28:30;;;;;;;10.13;6.40;;;6.20;90.50;;;;;;4965527;28;20035;-74
2023/03/07 08:30:56;;;;;;;12.50;7.32;;;6.30;90.30;;;;;;4966077;28;20035;-75
2023/03/07 08:33:22;;;;;;;13.35;6.63;;;6.50;90.20;;;;;;4965442;28;20035;-76
2023/03/07 08:35:48;;;;;;;13.27;7.22;;;6.50;90.00;;;;;;4966057;28;20031;-75
2023/03/07 08:38:13;;;;;;;13.75;7.28;;;6.50;89.30;;;;;;4951922;28;20039;-76
2023/03/07 08:40:40;;;;;;;12.85;7.13;;;6.50;89.50;;;;;;4965249;28;20094;-76
2023/03/07 08:43:05;;;;;;;11.95;6.50;;;6.60;89.40;;;;;;4948209;29;20078;-75
2023/03/07 08:45:31;;;;;;;12.18;6.85;;;6.70;89.20;;;;;;4964575;28;20321;-76
2023/03/07 08:47:57;;;;;;;13.15;6.80;;;6.70;89.00;;;;;;4965041;28;20090;-74
2023/03/07 08:50:25;;;;;;;11.93;7.00;;;6.80;89.00;;;;;;4964238;28;20027;-73
2023/03/07 08:52:51;;;;;;;12.15;7.05;;;6.80;88.20;;;;;;4965084;28;20074;-74
2023/03/07 08:55:17;;;;;;;13.43;7.00;;;6.90;87.90;;;;;;4964494;28;20031;-73
2023/03/07 08:57:44;;;;;;;11.55;6.57;;;6.90;87.60;;;;;;4964946;29;20234;-75
2023/03/07 09:00:11;;;;;;;10.65;6.40;;;7.00;87.60;;;;;;4964761;28;20063;-75
2023/03/07 09:02:37;;;;;;;12.50;6.15;;;7.10;86.50;;;;;;4963712;28;20051;-73
2023/03/07 09:05:03;;;;;;;11.85;6.47;;;7.10;85.80;;;;;;4965016;28;20035;-74
2023/03/07 09:07:29;;;;;;;11.25;5.68;;;7.00;85.90;;;;;;4963889;28;20046;-74
2023/03/07 09:09:55;;;;;;;11.30;6.13;;;7.00;85.40;;;;;;4964724;28;20402;-75
2023/03/07 09:12:20;;;;;;;10.73;6.15;;;7.00;86.10;;;;;;4964126;28;20057;-73
2023/03/07 09:14:46;;;;;;;10.63;6.20;;;7.10;86.20;;;;;;4964817;28;20030;-73
2023/03/07 09:17:12;;;;;;;10.80;5.85;;;7.30;85.40;;;;;;4964739;28;20038;-72
2023/03/07 09:19:38;;;;;;;13.43;5.78;;;7.50;84.90;;;;;;4963862;28;20080;-73
2023/03/07 09:22:04;;;;;;;12.82;6.00;;;7.70;83.90;;;;;;4964531;28;20297;-73
2023/03/07 09:24:29;;;;;;;10.07;5.30;;;7.70;82.70;;;;;;4963798;28;20376;-73
2023/03/07 09:26:58;;;;;;;9.88;5.32;;;7.70;82.10;;;;;;4964312;28;20029;-73
2023/03/07 09:29:24;;;;;;;8.40;5.20;;;7.80;82.10;;;;;;4946955;29;20121;-74
2023/03/07 09:31:50;;;;;;;8.48;5.00;;;7.70;80.90;;;;;;4964204;28;20229;-73
2023/03/07 09:34:15;;;;;;;8.93;4.57;;;7.70;81.40;;;;;;4963515;28;20340;-75
2023/03/07 09:36:41;;;;;;;9.23;5.55;;;7.70;80.50;;;;;;4964409;28;20106;-74
2023/03/07 09:39:07;;;;;;;9.55;4.97;;;7.50;80.20;;;;;;4964271;28;20397;-74
2023/03/07 09:41:51;;;;;;;11.52;5.00;;;7.40;80.30;;;;;;4963829;28;20062;-74
2023/03/07 09:44:55;;;;;;;10.82;5.20;;;7.30;81.00;;;;;;4963507;28;20043;-73
2023/03/07 09:48:01;;;;;;;8.32;4.63;;;7.20;81.10;;;;;;4963639;29;20043;-74
2023/03/07 09:50:43;;;;;;;9.38;4.75;;;7.00;81.20;;;;;;4967528;28;20039;-73
2023/03/07 09:53:18;;;;;;;8.77;4.55;;;6.90;81.80;;;;;;4971722;28;20035;-72
2023/03/07 09:55:46;;;;;;;8.82;4.38;;;6.70;82.10;;;;;;4956423;28;20194;-72
2023/03/07 09:58:19;;;;;;;9.37;4.83;;;6.70;82.20;;;;;;4956720;28;20120;-73
2023/03/07 10:00:45;;;;;;;10.20;5.20;;;6.70;82.50;;;;;;4964822;28;20032;-73
2023/03/07 10:03:30;;;;;;;9.13;5.15;;;6.80;82.20;;;;;;4953680;29;20046;-73
2023/03/07 10:06:01;;;;;;;8.65;4.70;;;6.80;82.30;;;;;;4964771;28;20090;-74
2023/03/07 10:08:32;;;;;;;8.85;4.93;;;6.80;81.80;;;;;;4963902;28;20043;-73
2023/03/07 10:11:22;;;;;;;8.40;4.68;;;6.90;82.50;;;;;;4964305;28;20039;-74
2023/03/07 10:14:13;;;;;;;8.85;4.32;;;7.00;81.90;;;;;;4964697;28;20208;-75
2023/03/07 10:16:49;;;;;;;10.10;4.85;;;6.80;80.80;;;;;;4925083;28;20272;-74
2023/03/07 10:19:42;;;;;;;8.35;4.85;;;6.70;81.10;;;;;;4964299;28;20039;-74
2023/03/07 10:22:41;;;;;;;8.68;4.40;;;6.60;81.60;;;;;;4964158;28;20038;-76
2023/03/07 10:25:37;;;;;;;8.30;4.57;;;6.50;81.50;;;;;;4963921;28;20309;-73
2023/03/07 10:28:31;;;;;;;8.30;4.43;;;6.40;81.80;;;;;;4963371;28;20047;-73
2023/03/07 10:31:12;;;;;;;8.32;4.53;;;6.50;81.10;;;;;;4961876;28;20074;-73
2023/03/07 10:33:41;;;;;;;9.05;5.32;;;6.60;81.40;;;;;;4963485;28;20085;-74
2023/03/07 10:36:21;;;;;;;9.93;4.82;;;6.70;79.80;;;;;;4963592;28;20058;-73
2023/03/07 10:39:02;;;;;;;8.60;4.70;;;6.60;80.70;;;;;;4964042;28;20090;-74
2023/03/07 10:41:28;;;;;;;8.15;4.32;;;6.50;80.30;;;;;;4963619;28;20035;-73
2023/03/07 10:43:55;;;;;;;9.75;4.80;;;6.40;80.80;;;;;;4963738;28;20018;-74
2023/03/07 10:46:22;;;;;;;8.35;4.72;;;6.30;80.80;;;;;;4944913;29;20047;-74
2023/03/07 10:48:54;;;;;;;9.23;5.13;;;6.40;81.20;;;;;;4954264;28;20565;-74
2023/03/07 10:51:38;;;;;;;8.98;4.75;;;6.40;81.10;;;;;;4957122;28;20031;-73
2023/03/07 10:54:07;;;;;;;10.13;5.10;;;6.40;81.00;;;;;;4955062;28;20070;-72
2023/03/07 10:56:33;;;;;;;10.30;4.78;;;6.50;80.80;;;;;;4958619;28;20046;-74
2023/03/07 10:59:08;;;;;;;10.98;5.05;;;6.50;81.60;;;;;;4955643;28;20202;-72
2023/03/07 11:01:35;;;;;;;9.27;4.80;;;6.40;81.10;;;;;;4955080;28;20025;-73
2023/03/07 11:04:04;;;;;;;9.85;5.40;;;6.40;81.50;;;;;;4954999;28;20023;-73
2023/03/07 11:06:34;;;;;;;9.80;5.32;;;6.40;81.40;;;;;;4939295;29;20039;-73
2023/03/07 11:09:33;;;;;;;8.07;4.68;;;6.40;80.50;;;;;;4956540;28;20094;-71
2023/03/07 11:12:04;;;;;;;11.25;5.53;;;6.30;80.30;;;;;;4953939;28;20114;-73
2023/03/07 11:14:52;;;;;;;10.65;5.20;;;6.30;80.90;;;;;;4954910;28;20123;-73
2023/03/07 11:17:27;;;;;;;9.13;5.13;;;6.30;80.10;;;;;;4957408;28;20322;-75
2023/03/07 11:19:57;;;;;;;11.20;5.55;;;6.20;80.30;;;;;;4966000;28;20035;-74
2023/03/07 11:22:27;;;;;;;8.93;5.28;;;6.20;80.20;;;;;;4966755;28;20039;-72
2023/03/07 11:25:07;;;;;;;9.73;5.03;;;6.20;80.40;;;;;;4967390;28;20039;-73
2023/03/07 11:27:46;;;;;;;12.05;5.85;;;6.20;79.60;;;;;;4949409;29;20042;-73
2023/03/07 11:30:22;;;;;;;10.98;4.68;;;6.20;79.90;;;;;;4967335;28;20031;-73
2023/03/07 11:33:28;;;;;;;8.90;4.93;;;6.20;80.00;;;;;;4967540;28;20039;-73
2023/03/07 11:36:00;;;;;;;7.82;3.70;;;6.30;79.60;;;;;;4924587;29;20082;-73
2023/03/07 11:38:37;;;;;;;9.93;5.25;;;6.30;79.20;;;;;;4949718;29;20312;-72
2023/03/07 11:41:23;;;;;;;9.60;5.33;;;6.20;79.80;;;;;;4966987;28;20044;-73
2023/03/07 11:44:20;;;;;;;11.77;5.55;;;6.30;79.60;;;;;;4967115;28;20051;-72
2023/03/07 11:47:03;;;;;;;9.77;5.18;;;6.20;79.20;;;;;;4966963;28;20039;-73
2023/03/07 11:49:47;;;;;;;9.15;5.00;;;6.20;79.40;;;;;;4949732;28;20043;-73
2023/03/07 11:52:18;;;;;;;9.10;5.28;;;6.30;79.60;;;;;;4967005;28;20035;-72
2023/03/07 11:54:52;;;;;;;11.48;4.55;;;6.40;79.20;;;;;;4966912;28;20042;-72
2023/03/07 11:57:37;;;;;;;9.88;5.10;;;6.30;78.90;;;;;;4946242;29;20055;-72
2023/03/07 12:00:29;;;;;;;9.10;4.90;;;6.40;79.10;;;;;;4966536;28;20098;-76
2023/03/07 12:03:17;;;;;;;8.82;4.65;;;6.40;79.20;;;;;;4966259;28;20080;-76
2023/03/07 12:06:05;;;;;;;8.68;4.65;;;6.30;77.90;;;;;;4938190;29;20071;-76
2023/03/07 12:08:37;;;;;;;9.32;5.15;;;6.20;77.70;;;;;;4953822;28;20050;-73
2023/03/07 12:11:25;;;;;;;11.88;4.85;;;6.10;78.20;;;;;;4965476;28;20035;-74
2023/03/07 12:14:27;;;;;;;9.68;4.53;;;6.10;78.40;;;;;;4958032;28;20031;-72
2023/03/07 12:16:59;;;;;;;9.18;4.80;;;6.10;78.60;;;;;;4954634;28;20043;-74
2023/03/07 12:19:41;;;;;;;8.77;4.57;;;6.10;78.50;;;;;;4949319;28;20331;-76
2023/03/07 12:22:19;;;;;;;9.40;4.82;;;6.20;78.60;;;;;;4968597;29;20077;-73
2023/03/07 12:24:48;;;;;;;10.57;4.95;;;6.40;78.00;;;;;;4967388;28;20098;-75
2023/03/07 12:27:26;;;;;;;10.25;5.28;;;6.40;78.00;;;;;;4971373;28;20031;-73
2023/03/07 12:30:12;;;;;;;8.27;4.70;;;6.60;77.60;;;;;;4951647;29;20031;-74
2023/03/07 12:32:37;;;;;;;9.63;5.38;;;6.80;77.40;;;;;;4967453;28;20027;-76
2023/03/07 12:35:15;;;;;;;10.30;5.10;;;7.20;76.80;;;;;;4946022;29;20074;-75
2023/03/07 12:37:47;;;;;;;9.40;5.25;;;7.70;75.00;;;;;;4962757;28;20293;-75
2023/03/07 12:40:20;;;;;;;9.98;4.82;;;7.90;73.90;;;;;;4957945;28;20035;-74
2023/03/07 12:42:54;;;;;;;9.18;5.13;;;8.10;73.60;;;;;;4966263;28;20146;-75
2023/03/07 12:45:23;;;;;;;8.85;5.05;;;8.20;73.00;;;;;;4965707;29;20029;-74
2023/03/07 12:48:07;;;;;;;9.38;5.30;;;8.30;72.50;;;;;;4965868;28;20035;-72
2023/03/07 12:50:54;;;;;;;8.55;4.72;;;8.40;73.10;;;;;;4948274;29;20035;-75
2023/03/07 12:53:39;;;;;;;9.63;4.30;;;8.40;72.80;;;;;;4965322;28;20027;-75
2023/03/07 12:56:19;;;;;;;9.35;4.80;;;8.20;72.90;;;;;;4964719;28;20459;-73
2023/03/07 12:59:11;;;;;;;8.45;5.18;;;8.10;73.40;;;;;;4965668;28;20073;-73
2023/03/07 13:01:59;;;;;;;11.30;5.15;;;8.10;73.70;;;;;;4965034;28;20039;-73
2023/03/07 13:04:43;;;;;;;8.80;4.55;;;8.20;73.20;;;;;;4965112;28;20206;-75
2023/03/07 13:07:25;;;;;;;10.23;4.78;;;8.40;73.00;;;;;;4965514;28;20376;-74
2023/03/07 13:09:54;;;;;;;8.60;4.75;;;8.50;72.80;;;;;;4965978;28;20039;-73
2023/03/07 13:12:23;;;;;;;7.63;4.50;;;8.30;73.10;;;;;;4965374;28;20213;-74
2023/03/07 13:14:51;;;;;;;;;;;8.10;73.50;;;;;;4966300;28;20062;-75
2023/03/07 13:17:29;;;;;;;8.25;4.30;;;7.90;73.70;;;;;;4965066;28;19977;-74
2023/03/07 13:20:01;;;;;;;8.25;4.90;;;7.80;74.40;;;;;;4953212;28;20274;-74
2023/03/07 13:22:26;;;;;;;10.32;4.80;;;7.70;74.20;;;;;;4964488;28;20324;-73
2023/03/07 13:25:18;;;;;;;8.20;4.50;;;7.70;74.70;;;;;;4964867;28;20126;-73
2023/03/07 13:27:45;;;;;;;8.00;4.03;;;7.80;74.50;;;;;;4947687;29;20054;-73
2023/03/07 13:30:10;;;;;;;8.60;4.40;;;7.80;74.30;;;;;;4965045;28;20097;-75
2023/03/07 13:32:54;;;;;;;13.13;4.72;;;7.70;74.50;;;;;;4964115;28;20336;-73
2023/03/07 13:35:23;;;;;;;8.63;4.07;;;7.50;74.70;;;;;;4931280;29;20081;-73
2023/03/07 13:38:00;;;;;;;8.13;3.90;;;7.50;74.90;;;;;;4963839;28;20217;-73
2023/03/07 13:40:45;;;;;;;9.35;3.85;;;7.50;74.80;;;;;;4964758;28;20098;-72
2023/03/07 13:43:22;;;;;;;8.15;4.22;;;7.50;75.00;;;;;;4965086;28;20039;-72
2023/03/07 13:45:51;;;;;;;7.50;3.70;;;7.50;75.00;;;;;;4965060;28;20050;-72
2023/03/07 13:48:26;;;;;;;6.75;3.75;;;7.40;74.80;;;;;;4963950;28;20305;-74
2023/03/07 13:50:53;;;;;;;8.27;3.67;;;7.40;74.90;;;;;;4964895;28;20050;-73
2023/03/07 13:53:22;;;;;;;6.35;3.40;;;7.30;75.20;;;;;;4964327;28;20027;-72
2023/03/07 13:56:00;;;;;;;6.07;3.42;;;7.30;75.10;;;;;;4964723;28;20098;-73
2023/03/07 13:58:34;;;;;;;7.72;3.67;;;7.30;75.30;;;;;;4964133;28;20399;-73
2023/03/07 14:01:27;;;;;;;7.80;4.10;;;7.30;75.50;;;;;;4947672;29;20308;-74
2023/03/07 14:04:09;;;;;;;7.18;3.67;;;7.30;75.60;;;;;;4964511;28;20054;-74
2023/03/07 14:06:45;;;;;;;6.35;3.70;;;7.40;75.60;;;;;;4963883;28;20149;-75
2023/03/07 14:09:19;;;;;;;5.95;3.35;;;7.60;75.20;;;;;;4950034;29;20087;-72
2023/03/07 14:12:08;;;;;;;7.15;3.70;;;7.50;75.20;;;;;;4964667;28;20039;-72
2023/03/07 14:14:44;;;;;;;5.95;3.28;;;7.50;75.30;;;;;;4963723;28;20082;-72
2023/03/07 14:17:20;;;;;;;7.03;3.42;;;7.50;75.50;;;;;;4964447;28;20043;-71
2023/03/07 14:20:16;;;;;;;8.45;3.92;;;7.80;75.10;;;;;;4964163;28;20031;-74
2023/03/07 14:23:33;;;;;;;7.18;3.63;;;8.00;74.10;;;;;;4964783;28;20050;-75
2023/03/07 14:26:17;;;;;;;5.93;3.17;;;8.40;73.50;;;;;;4869050;29;20276;-73
2023/03/07 14:28:48;;;;;;;6.55;3.35;;;9.50;71.30;;;;;;4867910;29;20045;-73
2023/03/07 14:31:40;;;;;;;7.20;3.30;;;10.20;69.40;;;;;;4922052;28;20062;-74
2023/03/07 14:34:25;;;;;;;6.97;3.40;;;11.80;66.40;;;;;;4961262;28;20051;-73
2023/03/07 14:36:56;;;;;;;5.18;2.90;;;13.40;63.80;;;;;;4946959;29;20060;-74
2023/03/07 14:39:24;;;;;;;5.22;3.38;;;14.80;60.70;;;;;;4963288;28;20042;-74
2023/03/07 14:42:11;;;;;;;5.05;3.22;;;15.40;58.50;;;;;;4964005;28;20050;-72
2023/03/07 14:45:00;;;;;;;4.80;3.27;;;15.90;57.50;;;;;;4946426;29;20074;-73
2023/03/07 14:47:44;;;;;;;4.43;2.90;;;16.20;56.90;;;;;;4961926;28;20617;-73
2023/03/07 14:50:20;;;;;;;5.88;3.38;;;16.60;55.30;;;;;;4963940;28;20035;-74
2023/03/07 14:52:46;;;;;;;5.68;2.97;;;15.50;56.30;;;;;;4963766;28;20160;-74
2023/03/07 14:55:19;;;;;;;4.95;3.05;;;15.80;56.40;;;;;;4964015;28;20322;-73
2023/03/07 14:57:48;;;;;;;4.55;2.90;;;14.50;57.30;;;;;;4963955;28;20056;-74
2023/03/07 15:00:21;;;;;;;4.97;3.20;;;13.00;59.30;;;;;;4963669;28;20032;-76
2023/03/07 15:02:57;;;;;;;5.95;2.97;;;11.70;61.30;;;;;;4963828;28;20069;-75
2023/03/07 15:05:37;;;;;;;6.20;3.03;;;10.80;63.40;;;;;;4946423;28;20085;-73
2023/03/07 15:08:15;;;;;;;5.05;2.90;;;10.50;64.50;;;;;;4954730;29;20066;-72
2023/03/07 15:10:42;;;;;;;;;;;10.20;65.20;;;;;;4958169;28;20063;-71
2023/03/07 15:13:25;;;;;;;4.88;2.67;;;10.90;64.40;;;;;;4963905;28;19908;-73
2023/03/07 15:15:55;;;;;;;4.25;2.60;;;11.30;63.70;;;;;;4963879;28;20332;-74
2023/03/07 15:18:40;;;;;;;5.05;2.60;;;12.40;61.90;;;;;;4963024;28;20039;-74
2023/03/07 15:21:12;;;;;;;5.93;2.88;;;13.40;60.70;;;;;;4951051;28;20074;-74
2023/03/07 15:23:38;;;;;;;5.70;2.92;;;14.50;58.30;;;;;;4945939;28;20039;-74
2023/03/07 15:26:09;;;;;;;5.30;2.70;;;14.40;57.80;;;;;;4930542;29;20189;-74
2023/03/07 15:28:41;;;;;;;7.00;3.08;;;13.70;58.50;;;;;;4976007;28;20220;-73
2023/03/07 15:31:07;;;;;;;5.90;2.70;;;13.80;58.50;;;;;;4950991;28;20136;-74
2023/03/07 15:33:35;;;;;;;5.57;2.70;;;13.50;58.70;;;;;;4963402;28;20033;-73
2023/03/07 15:36:12;;;;;;;6.10;2.75;;;14.00;58.90;;;;;;4963328;28;20096;-75
2023/03/07 15:38:50;;;;;;;5.85;2.83;;;14.90;57.20;;;;;;4963042;28;20038;-74
2023/03/07 15:41:36;;;;;;;4.43;3.07;;;14.90;56.70;;;;;;4963604;28;20035;-74
2023/03/07 15:44:19;;;;;;;5.43;2.70;;;14.00;57.70;;;;;;4963649;28;20023;-73
2023/03/07 15:46:53;;;;;;;7.32;3.08;;;14.00;58.50;;;;;;4956017;28;20174;-76
2023/03/07 15:49:29;;;;;;;4.75;2.92;;;14.30;58.50;;;;;;4959302;28;20050;-75
2023/03/07 15:51:57;;;;;;;5.13;3.03;;;14.30;58.00;;;;;;4963228;28;20261;-74
2023/03/07 15:54:23;;;;;;;;;;;14.00;58.50;;;;;;4953148;28;20030;-72
2023/03/07 15:56:58;;;;;;;6.70;2.88;;;13.80;58.40;;;;;;4958581;28;19906;-75
2023/03/07 15:59:32;;;;;;;5.18;2.75;;;12.50;60.40;;;;;;4950370;28;20233;-74
2023/03/07 16:02:44;;;;;;;5.82;3.00;;;12.10;61.60;;;;;;4964953;28;20047;-75
2023/03/07 16:05:20;;;;;;;6.30;2.85;;;11.70;62.50;;;;;;4950746;28;20325;-74
2023/03/07 16:07:48;;;;;;;6.88;3.13;;;11.40;63.90;;;;;;4961043;28;20047;-72
2023/03/07 16:10:14;;;;;;;4.88;2.70;;;11.00;64.30;;;;;;4963463;28;20122;-72
2023/03/07 16:12:45;;;;;;;6.47;3.05;;;10.60;65.00;;;;;;4966184;28;20098;-73
2023/03/07 16:15:20;;;;;;;6.20;3.33;;;10.50;65.70;;;;;;4966959;29;20078;-75
2023/03/07 16:17:51;;;;;;;5.28;2.70;;;10.30;66.50;;;;;;4967129;28;20154;-73
2023/03/07 16:20:19;;;;;;;4.97;2.50;;;9.90;67.50;;;;;;4967404;28;20042;-74
2023/03/07 16:22:46;;;;;;;6.18;2.78;;;9.70;68.00;;;;;;4970049;28;20043;-74
2023/03/07 16:25:14;;;;;;;5.47;3.13;;;9.50;68.10;;;;;;4961381;28;20042;-74
2023/03/07 16:27:44;;;;;;;5.63;2.75;;;9.20;69.30;;;;;;4964019;28;20047;-73
2023/03/07 16:30:16;;;;;;;6.03;3.47;;;9.50;69.00;;;;;;4967504;28;20031;-74
2023/03/07 16:32:42;;;;;;;5.65;3.00;;;9.80;68.50;;;;;;4949108;28;20063;-72
2023/03/07 16:35:19;;;;;;;5.47;2.92;;;9.80;67.80;;;;;;4966263;28;20027;-72
2023/03/07 16:37:45;;;;;;;5.40;3.20;;;9.50;68.50;;;;;;4966337;28;20159;-72
2023/03/07 16:40:13;;;;;;;7.43;3.13;;;9.20;69.00;;;;;;4956449;28;20039;-73
2023/03/07 16:42:45;;;;;;;8.52;3.00;;;8.80;69.80;;;;;;4958814;28;20209;-74
2023/03/07 16:45:21;;;;;;;7.22;3.40;;;8.60;70.60;;;;;;4957809;28;20269;-73
2023/03/07 16:47:51;;;;;;;5.82;2.92;;;8.40;71.40;;;;;;4956896;28;20224;-73
2023/03/07 16:50:19;;;;;;;6.38;3.28;;;8.30;71.80;;;;;;4948879;29;20100;-75
2023/03/07 16:52:45;;;;;;;;;;;8.30;72.10;;;;;;4966419;28;20042;-75
2023/03/07 16:55:13;;;;;;;6.15;2.95;;;8.10;72.60;;;;;;4966514;28;20109;-73
2023/03/07 16:57:42;;;;;;;6.25;3.30;;;8.00;72.70;;;;;;4965998;28;20095;-72
2023/03/07 17:00:25;;;;;;;5.00;2.95;;;7.70;73.30;;;;;;4966073;28;20047;-76
2023/03/07 17:02:53;;;;;;;6.68;2.97;;;7.60;73.80;;;;;;4965533;28;20051;-74
2023/03/07 17:05:27;;;;;;;7.10;3.17;;;7.50;74.10;;;;;;4965256;28;20094;-75
2023/03/07 17:07:57;;;;;;;5.40;3.03;;;7.50;74.40;;;;;;4965691;28;20046;-74
2023/03/07 17:10:27;;;;;;;6.78;3.60;;;7.30;74.50;;;;;;4965176;28;20035;-73
2023/03/07 17:12:55;;;;;;;7.60;3.70;;;7.20;74.90;;;;;;4965743;28;20098;-72
2023/03/07 17:15:25;;;;;;;7.80;3.70;;;7.10;75.50;;;;;;4965327;28;20045;-74
2023/03/07 17:17:51;;;;;;;5.65;3.10;;;6.90;75.80;;;;;;4965623;28;20031;-73
2023/03/07 17:20:19;;;;;;;7.85;3.33;;;6.90;76.30;;;;;;4965375;28;20102;-74
2023/03/07 17:22:45;;;;;;;6.68;3.50;;;6.80;76.50;;;;;;4948678;28;20039;-73
2023/03/07 17:25:11;;;;;;;6.43;3.47;;;6.70;76.50;;;;;;4965700;28;20023;-73
2023/03/07 17:27:45;;;;;;;6.63;3.58;;;6.70;76.70;;;;;;4964791;28;20216;-73
2023/03/07 17:30:20;;;;;;;6.78;3.65;;;6.60;76.90;;;;;;4961439;28;20035;-76
2023/03/07 17:32:46;;;;;;;7.20;3.42;;;6.50;77.20;;;;;;4940481;28;20309;-76
2023/03/07 17:35:15;;;;;;;5.68;3.35;;;6.30;77.50;;;;;;4943286;29;20035;-73
2023/03/07 17:37:41;;;;;;;6.50;3.33;;;6.40;77.60;;;;;;4958373;28;20020;-75
2023/03/07 17:40:09;;;;;;;7.95;3.20;;;6.30;77.60;;;;;;4965321;28;20050;-74
2023/03/07 17:42:36;;;;;;;8.23;3.80;;;6.20;78.10;;;;;;4964875;28;20050;-75
2023/03/07 17:45:04;;;;;;;7.57;3.60;;;6.10;78.20;;;;;;4965410;28;20046;-75
2023/03/07 17:47:30;;;;;;;7.20;3.55;;;6.20;78.20;;;;;;4957203;28;20023;-73
2023/03/07 17:49:56;;;;;;;7.28;3.42;;;6.10;78.50;;;;;;4958407;28;20051;-73
2023/03/07 17:52:22;;;;;;;6.80;3.70;;;5.90;79.00;;;;;;4954614;29;20035;-72
2023/03/07 17:54:48;;;;;;;7.65;3.60;;;5.80;79.10;;;;;;4960993;28;20098;-72
2023/03/07 17:57:14;;;;;;;11.07;4.20;;;5.80;79.30;;;;;;4964392;28;20229;-72
2023/03/07 17:59:40;;;;;;;7.45;3.65;;;5.70;79.30;;;;;;4963943;28;20046;-72
2023/03/07 18:02:07;;;;;;;6.90;4.10;;;5.70;79.60;;;;;;4964413;28;20051;-72
2023/03/07 18:04:33;;;;;;;8.90;3.97;;;5.70;79.60;;;;;;4964493;28;20097;-71
2023/03/07 18:06:59;;;;;;;6.90;3.65;;;5.70;79.60;;;;;;4947517;29;20082;-73
2023/03/07 18:09:25;;;;;;;8.35;4.03;;;5.80;79.70;;;;;;4964114;28;20051;-72
2023/03/07 18:11:51;;;;;;;7.22;3.60;;;5.70;79.80;;;;;;4964385;28;20035;-73
2023/03/07 18:14:19;;;;;;;8.70;3.57;;;5.70;79.80;;;;;;4963973;28;20226;-73
2023/03/07 18:16:45;;;;;;;6.63;3.65;;;5.70;79.80;;;;;;4964308;28;20027;-73
2023/03/07 18:19:11;;;;;;;7.30;4.22;;;5.80;79.70;;;;;;4964019;28;20102;-72
2023/03/07 18:21:37;;;;;;;8.07;4.00;;;5.80;79.50;;;;;;4946720;29;20035;-73
2023/03/07 18:24:19;;;;;;;8.60;3.63;;;5.80;79.70;;;;;;4963654;28;20130;-72
2023/03/07 18:26:45;;;;;;;9.90;4.57;;;5.80;79.70;;;;;;4962499;28;20035;-71
2023/03/07 18:29:11;;;;;;;6.90;3.78;;;5.80;79.90;;;;;;4964319;28;20037;-72
2023/03/07 18:31:37;;;;;;;9.10;4.38;;;5.80;80.20;;;;;;4963590;28;20043;-72
2023/03/07 18:34:03;;;;;;;9.35;4.53;;;5.70;80.40;;;;;;4964278;28;20031;-72
2023/03/07 18:36:29;;;;;;;8.73;4.75;;;5.60;80.70;;;;;;4946733;29;20027;-71
2023/03/07 18:38:56;;;;;;;9.95;4.65;;;5.50;80.90;;;;;;4964304;28;20027;-73
2023/03/07 18:41:24;;;;;;;8.48;4.85;;;5.50;80.90;;;;;;4963812;28;20043;-73
2023/03/07 18:43:51;;;;;;;10.80;4.35;;;5.60;81.30;;;;;;4964489;28;20090;-72
2023/03/07 18:46:19;;;;;;;9.57;4.22;;;5.60;81.10;;;;;;4963736;28;20027;-73
2023/03/07 18:48:45;;;;;;;7.60;4.37;;;5.60;80.90;;;;;;4964421;28;20047;-73
2023/03/07 18:51:14;;;;;;;8.30;4.32;;;5.70;81.30;;;;;;4960284;28;20023;-73